Brockwell, Arkansas
Current Conditions -  °F | °C
As of 10:15 PM on Sunday 23 Nov 2014 (Local Time) from KBVX Reporting Station
Scattered Clouds Scattered Clouds  
Wind Chill: 16°   Ceiling: Unl
Heat Index: 16°   Visibility: 10mi
Dew Point: 14°   Wind: 9mph
Humidity: 88%   Direction: 200°SSW
Pressure: 29.33"   Gusts: 21mph
Location:  36.14°N, 91.93°W
Report Text: KBVX 240415Z AUTO 20008G18KT 10SM SCT014 16/14 A2933 RMK AO1
Loading
Personal Weather Stations






























Interactive Weather Map New forecast layout! Learn more

10-Day Weather Forecast

Advertisements
Track Severe Weather on mobile